| Date | Time | Temp. (oF) | Dew Point (oF) | Rel. Hum. (%) | Press. (in.) | Wind Dir. | Wind Speed (mph) | Hourly Rainfall (in.) |
|
|---|---|---|---|---|---|---|---|---|---|
| 1 | 12/21 | 00:00 | 33 | 28 | 85 | 29.65 | S | 1 | 0.00 |
| 2 | 12/20 | 23:00 | 35 | 30 | 82 | 29.65 | SSW | 0 | 0.00 |
| 3 | 12/20 | 22:00 | 36 | 30 | 80 | 29.63 | SW | 2 | 0.00 |
| 4 | 12/20 | 21:00 | 37 | 30 | 76 | 29.63 | SSW | 2 | 0.00 |
| 5 | 12/20 | 20:00 | 38 | 30 | 75 | 29.63 | W | 4 | 0.00 |
| 6 | 12/20 | 19:00 | 39 | 31 | 75 | 29.60 | WNW | 5 | 0.00 |
| 7 | 12/20 | 18:00 | 40 | 33 | 76 | 29.58 | WNW | 3 | 0.00 |
| 8 | 12/20 | 17:00 | 43 | 34 | 73 | 29.56 | WNW | 7 | 0.00 |
| 9 | 12/20 | 16:00 | 45 | 35 | 69 | 29.55 | NW | 7 | 0.00 |
| 10 | 12/20 | 15:00 | 49 | 39 | 70 | 29.51 | WNW | 7 | 0.00 |
| 11 | 12/20 | 14:00 | 50 | 39 | 68 | 29.47 | WNW | 16 | 0.00 |
| 12 | 12/20 | 13:00 | 53 | 47 | 83 | 29.46 | W | 11 | 0.00 |
| 13 | 12/20 | 12:00 | 53 | 51 | 93 | 29.47 | WSW | 4 | 0.00 |
| 14 | 12/20 | 11:00 | 55 | 54 | 100 | 29.48 | SSW | 5 | 0.09 |
| 15 | 12/20 | 10:00 | 58 | 58 | 100 | 29.46 | S | 11 | 0.00 |
| 16 | 12/20 | 09:00 | 58 | 58 | 100 | 29.47 | SSW | 12 | 0.02 |
| 17 | 12/20 | 08:00 | 58 | 58 | 100 | 29.48 | S | 18 | 0.00 |
| 18 | 12/20 | 07:00 | 56 | 55 | 100 | 29.53 | S | 9 | 0.06 |
| 19 | 12/20 | 06:00 | 55 | 54 | 100 | 29.57 | S | 12 | 0.02 |
| 20 | 12/20 | 05:00 | 54 | 54 | 100 | 29.60 | SSE | 13 | 0.02 |
| 21 | 12/20 | 04:00 | 53 | 53 | 100 | 29.64 | SSW | 8 | 0.00 |
| 22 | 12/20 | 03:00 | 50 | 50 | 100 | 29.69 | SE | 3 | 0.02 |
| 23 | 12/20 | 02:00 | 48 | 48 | 100 | 29.73 | S | 4 | 0.00 |
| 24 | 12/20 | 01:00 | 47 | 46 | 100 | 29.74 | SSE | 2 | 0.00 |